Terminal Aerodrome Forecast
Issued by NWS

Home | Current Version | Previous Version | Text Only | Print | Product List | Glossary On
Versions: 1 2 3 4 5 6 7 8 9 10 11 12 13 14
000
FTUS43 KDTX 201100
TAFDET
TAF
KDET 201127Z 2012/2112 22009KT P6SM SCT150 BKN250 WS015/24035KT
     FM201500 22013G20KT P6SM SCT040 BKN120 OVC250
     FM202300 24012KT 4SM SHRA BKN035 BKN100
     FM210300 24008KT P6SM BKN030 OVC050
     FM210800 22005KT 4SM -SHRA BR BKN012 OVC030=

USA.gov is the U.S. government's official web portal to all federal, state and local government web resources and services.